TAF KALS
KALS 270531Z 2706/2806 VRB04KT P6SM FEW250 FM271800 32007KT P6SM FEW250 FM280200 VRB04KT P6SM FEW250=
METAR KALS
WC KALS
WS KALS
WV KALS